sensor_id;sensor_type;location;lat;lon;timestamp;P1;durP1;ratioP1;P2;durP2;ratioP2
43014;SDS011;28637;50.554;7.032;2023-05-18T00:02:18;3.92;;;2.20;;
43014;SDS011;28637;50.554;7.032;2023-05-18T00:07:20;5.10;;;2.25;;
43014;SDS011;28637;50.554;7.032;2023-05-18T00:12:21;4.55;;;2.28;;
43014;SDS011;28637;50.554;7.032;2023-05-18T00:17:21;4.50;;;2.08;;
43014;SDS011;28637;50.554;7.032;2023-05-18T00:22:22;5.32;;;2.63;;
43014;SDS011;28637;50.554;7.032;2023-05-18T00:27:25;4.57;;;2.10;;
43014;SDS011;28637;50.554;7.032;2023-05-18T00:32:25;7.32;;;2.15;;
43014;SDS011;28637;50.554;7.032;2023-05-18T00:37:26;3.72;;;1.90;;
43014;SDS011;28637;50.554;7.032;2023-05-18T00:42:27;6.60;;;2.03;;
43014;SDS011;28637;50.554;7.032;2023-05-18T00:47:27;5.93;;;2.00;;
43014;SDS011;28637;50.554;7.032;2023-05-18T00:52:28;5.30;;;2.40;;
43014;SDS011;28637;50.554;7.032;2023-05-18T00:57:29;5.00;;;3.10;;
43014;SDS011;28637;50.554;7.032;2023-05-18T01:02:29;5.13;;;2.10;;
43014;SDS011;28637;50.554;7.032;2023-05-18T01:07:30;6.20;;;2.33;;
43014;SDS011;28637;50.554;7.032;2023-05-18T01:12:43;6.22;;;2.63;;
43014;SDS011;28637;50.554;7.032;2023-05-18T01:28:35;6.20;;;2.40;;
43014;SDS011;28637;50.554;7.032;2023-05-18T01:33:35;3.22;;;2.20;;
43014;SDS011;28637;50.554;7.032;2023-05-18T01:38:36;5.63;;;2.40;;
43014;SDS011;28637;50.554;7.032;2023-05-18T01:43:41;5.05;;;2.33;;
43014;SDS011;28637;50.554;7.032;2023-05-18T01:48:55;4.40;;;2.30;;
43014;SDS011;28637;50.554;7.032;2023-05-18T01:54:07;5.40;;;2.40;;
43014;SDS011;28637;50.554;7.032;2023-05-18T01:59:10;6.63;;;2.30;;
43014;SDS011;28637;50.554;7.032;2023-05-18T02:04:11;5.10;;;2.13;;
43014;SDS011;28637;50.554;7.032;2023-05-18T02:09:13;6.30;;;2.58;;
43014;SDS011;28637;50.554;7.032;2023-05-18T02:14:13;6.93;;;2.38;;
43014;SDS011;28637;50.554;7.032;2023-05-18T02:19:14;6.68;;;2.80;;
43014;SDS011;28637;50.554;7.032;2023-05-18T02:24:14;5.78;;;2.47;;
43014;SDS011;28637;50.554;7.032;2023-05-18T02:29:16;4.43;;;2.60;;
43014;SDS011;28637;50.554;7.032;2023-05-18T02:34:17;4.32;;;2.58;;
43014;SDS011;28637;50.554;7.032;2023-05-18T02:39:18;3.75;;;2.08;;
43014;SDS011;28637;50.554;7.032;2023-05-18T02:44:19;4.50;;;2.20;;
43014;SDS011;28637;50.554;7.032;2023-05-18T02:49:19;6.40;;;2.05;;
43014;SDS011;28637;50.554;7.032;2023-05-18T02:54:20;3.85;;;2.58;;
43014;SDS011;28637;50.554;7.032;2023-05-18T02:59:21;4.03;;;1.95;;
43014;SDS011;28637;50.554;7.032;2023-05-18T03:04:21;3.38;;;1.92;;
43014;SDS011;28637;50.554;7.032;2023-05-18T03:09:24;5.65;;;1.83;;
43014;SDS011;28637;50.554;7.032;2023-05-18T03:14:25;7.40;;;2.35;;
43014;SDS011;28637;50.554;7.032;2023-05-18T03:19:26;3.17;;;2.17;;
43014;SDS011;28637;50.554;7.032;2023-05-18T03:24:26;7.60;;;2.67;;
43014;SDS011;28637;50.554;7.032;2023-05-18T03:29:29;4.88;;;2.63;;
43014;SDS011;28637;50.554;7.032;2023-05-18T03:34:29;6.18;;;2.65;;
43014;SDS011;28637;50.554;7.032;2023-05-18T03:39:30;6.45;;;2.40;;
43014;SDS011;28637;50.554;7.032;2023-05-18T03:44:30;4.60;;;2.10;;
43014;SDS011;28637;50.554;7.032;2023-05-18T03:49:32;7.35;;;2.30;;
43014;SDS011;28637;50.554;7.032;2023-05-18T03:59:34;4.53;;;2.25;;
43014;SDS011;28637;50.554;7.032;2023-05-18T04:04:34;4.50;;;2.47;;
43014;SDS011;28637;50.554;7.032;2023-05-18T04:09:35;10.25;;;2.80;;
43014;SDS011;28637;50.554;7.032;2023-05-18T04:14:36;5.68;;;3.00;;
43014;SDS011;28637;50.554;7.032;2023-05-18T04:19:36;5.22;;;2.42;;
43014;SDS011;28637;50.554;7.032;2023-05-18T04:24:37;9.30;;;2.80;;
43014;SDS011;28637;50.554;7.032;2023-05-18T04:29:40;4.45;;;2.25;;
43014;SDS011;28637;50.554;7.032;2023-05-18T04:34:42;4.68;;;2.83;;
43014;SDS011;28637;50.554;7.032;2023-05-18T04:39:43;4.75;;;2.72;;
43014;SDS011;28637;50.554;7.032;2023-05-18T04:44:43;5.30;;;2.90;;
43014;SDS011;28637;50.554;7.032;2023-05-18T04:49:44;5.78;;;3.08;;
43014;SDS011;28637;50.554;7.032;2023-05-18T04:54:45;7.88;;;2.83;;
43014;SDS011;28637;50.554;7.032;2023-05-18T04:59:45;11.48;;;3.25;;
43014;SDS011;28637;50.554;7.032;2023-05-18T05:04:46;8.23;;;3.17;;
43014;SDS011;28637;50.554;7.032;2023-05-18T05:09:47;9.55;;;3.40;;
43014;SDS011;28637;50.554;7.032;2023-05-18T05:14:48;5.25;;;3.13;;
43014;SDS011;28637;50.554;7.032;2023-05-18T05:19:48;7.53;;;3.55;;
43014;SDS011;28637;50.554;7.032;2023-05-18T05:24:49;7.15;;;3.50;;
43014;SDS011;28637;50.554;7.032;2023-05-18T05:29:50;7.68;;;3.72;;
43014;SDS011;28637;50.554;7.032;2023-05-18T05:34:50;6.35;;;3.30;;
43014;SDS011;28637;50.554;7.032;2023-05-18T05:39:51;7.50;;;3.50;;
43014;SDS011;28637;50.554;7.032;2023-05-18T05:44:52;5.82;;;3.10;;
43014;SDS011;28637;50.554;7.032;2023-05-18T05:49:53;5.72;;;3.45;;
43014;SDS011;28637;50.554;7.032;2023-05-18T05:54:54;8.27;;;3.22;;
43014;SDS011;28637;50.554;7.032;2023-05-18T05:59:55;6.60;;;3.58;;
43014;SDS011;28637;50.554;7.032;2023-05-18T06:04:55;8.80;;;3.63;;
43014;SDS011;28637;50.554;7.032;2023-05-18T06:09:56;9.43;;;3.70;;
43014;SDS011;28637;50.554;7.032;2023-05-18T06:14:56;10.15;;;3.88;;
43014;SDS011;28637;50.554;7.032;2023-05-18T06:19:57;8.83;;;3.70;;
43014;SDS011;28637;50.554;7.032;2023-05-18T06:24:58;10.68;;;3.80;;
43014;SDS011;28637;50.554;7.032;2023-05-18T06:29:58;11.43;;;3.80;;
43014;SDS011;28637;50.554;7.032;2023-05-18T06:35:04;11.15;;;3.75;;
43014;SDS011;28637;50.554;7.032;2023-05-18T06:40:05;8.80;;;3.50;;
43014;SDS011;28637;50.554;7.032;2023-05-18T06:45:07;8.57;;;3.60;;
43014;SDS011;28637;50.554;7.032;2023-05-18T06:50:08;8.20;;;3.23;;
43014;SDS011;28637;50.554;7.032;2023-05-18T06:55:09;10.17;;;3.10;;
43014;SDS011;28637;50.554;7.032;2023-05-18T07:00:10;9.00;;;3.10;;
43014;SDS011;28637;50.554;7.032;2023-05-18T07:05:11;8.68;;;3.10;;
43014;SDS011;28637;50.554;7.032;2023-05-18T07:10:12;8.43;;;3.10;;
43014;SDS011;28637;50.554;7.032;2023-05-18T07:15:13;6.67;;;2.80;;
43014;SDS011;28637;50.554;7.032;2023-05-18T07:20:13;10.27;;;3.10;;
43014;SDS011;28637;50.554;7.032;2023-05-18T07:25:14;9.03;;;3.03;;
43014;SDS011;28637;50.554;7.032;2023-05-18T07:30:15;6.30;;;2.50;;
43014;SDS011;28637;50.554;7.032;2023-05-18T07:35:16;7.53;;;2.83;;
43014;SDS011;28637;50.554;7.032;2023-05-18T07:40:18;7.47;;;2.38;;
43014;SDS011;28637;50.554;7.032;2023-05-18T07:45:19;7.33;;;2.50;;
43014;SDS011;28637;50.554;7.032;2023-05-18T07:50:20;6.63;;;2.67;;
43014;SDS011;28637;50.554;7.032;2023-05-18T07:55:21;8.97;;;2.70;;
43014;SDS011;28637;50.554;7.032;2023-05-18T08:00:22;5.53;;;2.90;;
43014;SDS011;28637;50.554;7.032;2023-05-18T08:05:23;4.67;;;2.67;;
43014;SDS011;28637;50.554;7.032;2023-05-18T08:10:23;9.43;;;2.90;;
43014;SDS011;28637;50.554;7.032;2023-05-18T08:15:24;7.97;;;2.90;;
43014;SDS011;28637;50.554;7.032;2023-05-18T08:20:25;6.00;;;3.13;;
43014;SDS011;28637;50.554;7.032;2023-05-18T08:25:29;7.45;;;3.10;;
43014;SDS011;28637;50.554;7.032;2023-05-18T08:30:29;9.23;;;2.90;;
43014;SDS011;28637;50.554;7.032;2023-05-18T08:35:30;9.40;;;3.10;;
43014;SDS011;28637;50.554;7.032;2023-05-18T08:40:32;6.88;;;2.67;;
43014;SDS011;28637;50.554;7.032;2023-05-18T08:51:05;8.90;;;2.70;;
43014;SDS011;28637;50.554;7.032;2023-05-18T08:56:07;7.40;;;2.47;;
43014;SDS011;28637;50.554;7.032;2023-05-18T09:01:10;7.75;;;2.45;;
43014;SDS011;28637;50.554;7.032;2023-05-18T09:06:10;5.60;;;2.23;;
43014;SDS011;28637;50.554;7.032;2023-05-18T09:11:11;7.00;;;2.70;;
43014;SDS011;28637;50.554;7.032;2023-05-18T09:16:12;12.37;;;2.93;;
43014;SDS011;28637;50.554;7.032;2023-05-18T09:21:13;11.57;;;2.60;;
43014;SDS011;28637;50.554;7.032;2023-05-18T09:26:13;9.60;;;2.47;;
43014;SDS011;28637;50.554;7.032;2023-05-18T09:31:17;5.63;;;2.27;;
43014;SDS011;28637;50.554;7.032;2023-05-18T09:36:26;6.95;;;2.10;;
43014;SDS011;28637;50.554;7.032;2023-05-18T09:41:28;9.90;;;2.30;;
43014;SDS011;28637;50.554;7.032;2023-05-18T09:46:30;10.20;;;2.50;;
43014;SDS011;28637;50.554;7.032;2023-05-18T09:51:37;6.90;;;2.47;;
43014;SDS011;28637;50.554;7.032;2023-05-18T09:56:38;8.35;;;2.33;;
43014;SDS011;28637;50.554;7.032;2023-05-18T10:02:00;5.63;;;2.17;;
43014;SDS011;28637;50.554;7.032;2023-05-18T10:07:01;5.45;;;2.10;;
43014;SDS011;28637;50.554;7.032;2023-05-18T10:12:02;6.03;;;2.80;;
43014;SDS011;28637;50.554;7.032;2023-05-18T10:17:11;8.75;;;2.30;;
43014;SDS011;28637;50.554;7.032;2023-05-18T10:22:16;8.48;;;2.58;;
43014;SDS011;28637;50.554;7.032;2023-05-18T10:27:22;8.27;;;2.60;;
43014;SDS011;28637;50.554;7.032;2023-05-18T10:32:26;8.40;;;2.47;;
43014;SDS011;28637;50.554;7.032;2023-05-18T10:37:28;12.15;;;3.25;;
43014;SDS011;28637;50.554;7.032;2023-05-18T10:42:30;5.32;;;2.33;;
43014;SDS011;28637;50.554;7.032;2023-05-18T10:47:32;9.18;;;2.60;;
43014;SDS011;28637;50.554;7.032;2023-05-18T10:52:36;6.30;;;2.40;;
43014;SDS011;28637;50.554;7.032;2023-05-18T11:02:39;9.70;;;2.17;;
43014;SDS011;28637;50.554;7.032;2023-05-18T11:07:41;10.35;;;2.50;;
43014;SDS011;28637;50.554;7.032;2023-05-18T11:12:44;6.95;;;2.00;;
43014;SDS011;28637;50.554;7.032;2023-05-18T11:17:44;6.83;;;2.10;;
43014;SDS011;28637;50.554;7.032;2023-05-18T11:22:49;10.00;;;2.53;;
43014;SDS011;28637;50.554;7.032;2023-05-18T11:28:09;7.27;;;2.30;;
43014;SDS011;28637;50.554;7.032;2023-05-18T11:33:16;9.45;;;2.58;;
43014;SDS011;28637;50.554;7.032;2023-05-18T11:38:20;6.13;;;2.15;;
43014;SDS011;28637;50.554;7.032;2023-05-18T11:48:26;4.57;;;2.00;;
43014;SDS011;28637;50.554;7.032;2023-05-18T11:53:28;7.22;;;2.17;;
43014;SDS011;28637;50.554;7.032;2023-05-18T11:58:30;6.78;;;2.20;;
43014;SDS011;28637;50.554;7.032;2023-05-18T12:03:30;6.03;;;2.20;;
43014;SDS011;28637;50.554;7.032;2023-05-18T12:08:32;6.18;;;2.17;;
43014;SDS011;28637;50.554;7.032;2023-05-18T12:13:33;5.20;;;2.07;;
43014;SDS011;28637;50.554;7.032;2023-05-18T12:18:34;6.47;;;2.20;;
43014;SDS011;28637;50.554;7.032;2023-05-18T12:23:38;3.92;;;2.00;;
43014;SDS011;28637;50.554;7.032;2023-05-18T12:28:38;7.63;;;2.23;;
43014;SDS011;28637;50.554;7.032;2023-05-18T12:33:41;5.38;;;2.10;;
43014;SDS011;28637;50.554;7.032;2023-05-18T12:38:42;6.18;;;1.92;;
43014;SDS011;28637;50.554;7.032;2023-05-18T12:43:47;4.70;;;2.03;;
43014;SDS011;28637;50.554;7.032;2023-05-18T12:48:54;6.63;;;2.17;;
43014;SDS011;28637;50.554;7.032;2023-05-18T12:53:56;4.78;;;1.67;;
43014;SDS011;28637;50.554;7.032;2023-05-18T12:58:57;7.57;;;2.00;;
43014;SDS011;28637;50.554;7.032;2023-05-18T13:03:59;5.63;;;2.03;;
43014;SDS011;28637;50.554;7.032;2023-05-18T13:08:59;5.07;;;2.20;;
43014;SDS011;28637;50.554;7.032;2023-05-18T13:14:01;3.70;;;1.80;;
43014;SDS011;28637;50.554;7.032;2023-05-18T13:19:09;6.15;;;1.83;;
43014;SDS011;28637;50.554;7.032;2023-05-18T13:24:10;7.32;;;2.03;;
43014;SDS011;28637;50.554;7.032;2023-05-18T13:29:12;7.28;;;1.92;;
43014;SDS011;28637;50.554;7.032;2023-05-18T13:34:12;6.27;;;2.20;;
43014;SDS011;28637;50.554;7.032;2023-05-18T13:39:13;5.07;;;2.10;;
43014;SDS011;28637;50.554;7.032;2023-05-18T13:44:14;5.80;;;1.88;;
43014;SDS011;28637;50.554;7.032;2023-05-18T13:49:17;3.65;;;1.73;;
43014;SDS011;28637;50.554;7.032;2023-05-18T13:54:17;5.27;;;1.70;;
43014;SDS011;28637;50.554;7.032;2023-05-18T13:59:18;6.55;;;1.92;;
43014;SDS011;28637;50.554;7.032;2023-05-18T14:04:20;4.65;;;2.08;;
43014;SDS011;28637;50.554;7.032;2023-05-18T14:09:21;3.60;;;1.70;;
43014;SDS011;28637;50.554;7.032;2023-05-18T14:14:22;5.10;;;1.90;;
43014;SDS011;28637;50.554;7.032;2023-05-18T14:19:23;5.03;;;2.08;;
43014;SDS011;28637;50.554;7.032;2023-05-18T14:29:24;4.20;;;1.92;;
43014;SDS011;28637;50.554;7.032;2023-05-18T14:39:25;4.83;;;1.93;;
43014;SDS011;28637;50.554;7.032;2023-05-18T14:44:26;5.88;;;2.05;;
43014;SDS011;28637;50.554;7.032;2023-05-18T14:49:27;12.48;;;2.15;;
43014;SDS011;28637;50.554;7.032;2023-05-18T14:54:27;4.90;;;1.80;;
43014;SDS011;28637;50.554;7.032;2023-05-18T14:59:28;5.72;;;1.80;;
43014;SDS011;28637;50.554;7.032;2023-05-18T15:04:28;3.58;;;1.80;;
43014;SDS011;28637;50.554;7.032;2023-05-18T15:14:30;3.87;;;1.97;;
43014;SDS011;28637;50.554;7.032;2023-05-18T15:24:31;6.17;;;1.83;;
43014;SDS011;28637;50.554;7.032;2023-05-18T15:29:31;3.67;;;2.10;;
43014;SDS011;28637;50.554;7.032;2023-05-18T15:39:35;3.80;;;2.00;;
43014;SDS011;28637;50.554;7.032;2023-05-18T15:44:37;7.90;;;2.17;;
43014;SDS011;28637;50.554;7.032;2023-05-18T15:54:38;6.10;;;1.87;;
43014;SDS011;28637;50.554;7.032;2023-05-18T16:04:39;2.80;;;1.70;;
43014;SDS011;28637;50.554;7.032;2023-05-18T16:14:40;4.50;;;2.03;;
43014;SDS011;28637;50.554;7.032;2023-05-18T16:24:41;5.50;;;1.70;;
43014;SDS011;28637;50.554;7.032;2023-05-18T16:29:43;4.88;;;1.80;;
43014;SDS011;28637;50.554;7.032;2023-05-18T16:39:44;6.77;;;1.87;;
43014;SDS011;28637;50.554;7.032;2023-05-18T16:44:45;6.28;;;2.20;;
43014;SDS011;28637;50.554;7.032;2023-05-18T16:49:45;7.15;;;2.00;;
43014;SDS011;28637;50.554;7.032;2023-05-18T16:54:47;5.50;;;1.80;;
43014;SDS011;28637;50.554;7.032;2023-05-18T16:59:48;4.20;;;1.80;;
43014;SDS011;28637;50.554;7.032;2023-05-18T17:09:49;6.80;;;2.50;;
43014;SDS011;28637;50.554;7.032;2023-05-18T17:14:50;7.15;;;1.98;;
43014;SDS011;28637;50.554;7.032;2023-05-18T17:19:50;4.97;;;1.90;;
43014;SDS011;28637;50.554;7.032;2023-05-18T17:24:51;4.28;;;1.80;;
43014;SDS011;28637;50.554;7.032;2023-05-18T17:29:52;5.33;;;2.33;;
43014;SDS011;28637;50.554;7.032;2023-05-18T17:34:52;4.70;;;2.10;;
43014;SDS011;28637;50.554;7.032;2023-05-18T17:39:53;5.97;;;2.37;;
43014;SDS011;28637;50.554;7.032;2023-05-18T17:44:53;6.07;;;2.20;;
43014;SDS011;28637;50.554;7.032;2023-05-18T17:49:54;6.57;;;2.30;;
43014;SDS011;28637;50.554;7.032;2023-05-18T17:54:55;5.50;;;2.10;;
43014;SDS011;28637;50.554;7.032;2023-05-18T17:59:56;7.38;;;2.60;;
43014;SDS011;28637;50.554;7.032;2023-05-18T18:04:56;5.83;;;2.10;;
43014;SDS011;28637;50.554;7.032;2023-05-18T18:09:57;7.00;;;2.53;;
43014;SDS011;28637;50.554;7.032;2023-05-18T18:14:58;10.10;;;3.20;;
43014;SDS011;28637;50.554;7.032;2023-05-18T18:19:58;8.40;;;3.00;;
43014;SDS011;28637;50.554;7.032;2023-05-18T18:24:59;9.53;;;2.83;;
43014;SDS011;28637;50.554;7.032;2023-05-18T18:30:00;7.33;;;2.63;;
43014;SDS011;28637;50.554;7.032;2023-05-18T18:35:00;5.53;;;2.10;;
43014;SDS011;28637;50.554;7.032;2023-05-18T18:40:01;6.23;;;2.20;;
43014;SDS011;28637;50.554;7.032;2023-05-18T18:45:02;5.33;;;2.53;;
43014;SDS011;28637;50.554;7.032;2023-05-18T18:50:03;6.03;;;2.33;;
43014;SDS011;28637;50.554;7.032;2023-05-18T18:55:05;4.93;;;2.40;;
43014;SDS011;28637;50.554;7.032;2023-05-18T19:00:06;7.77;;;2.80;;
43014;SDS011;28637;50.554;7.032;2023-05-18T19:05:10;5.93;;;2.70;;
43014;SDS011;28637;50.554;7.032;2023-05-18T19:10:10;6.40;;;3.47;;
43014;SDS011;28637;50.554;7.032;2023-05-18T19:15:11;6.10;;;2.50;;
43014;SDS011;28637;50.554;7.032;2023-05-18T19:20:12;9.20;;;2.70;;
43014;SDS011;28637;50.554;7.032;2023-05-18T19:25:13;4.43;;;2.23;;
43014;SDS011;28637;50.554;7.032;2023-05-18T19:30:13;5.10;;;2.40;;
43014;SDS011;28637;50.554;7.032;2023-05-18T19:35:20;6.45;;;2.42;;
43014;SDS011;28637;50.554;7.032;2023-05-18T19:40:22;6.95;;;3.00;;
43014;SDS011;28637;50.554;7.032;2023-05-18T19:45:26;6.68;;;2.60;;
43014;SDS011;28637;50.554;7.032;2023-05-18T19:50:26;14.33;;;5.10;;
43014;SDS011;28637;50.554;7.032;2023-05-18T19:55:27;10.27;;;4.60;;
43014;SDS011;28637;50.554;7.032;2023-05-18T20:00:28;5.57;;;2.80;;
43014;SDS011;28637;50.554;7.032;2023-05-18T20:05:28;6.63;;;2.83;;
43014;SDS011;28637;50.554;7.032;2023-05-18T20:10:29;7.27;;;3.30;;
43014;SDS011;28637;50.554;7.032;2023-05-18T20:15:30;8.93;;;3.73;;
43014;SDS011;28637;50.554;7.032;2023-05-18T20:20:36;11.93;;;4.15;;
43014;SDS011;28637;50.554;7.032;2023-05-18T20:25:36;16.17;;;8.00;;
43014;SDS011;28637;50.554;7.032;2023-05-18T20:30:37;15.67;;;10.13;;
43014;SDS011;28637;50.554;7.032;2023-05-18T20:35:38;21.10;;;9.63;;
43014;SDS011;28637;50.554;7.032;2023-05-18T20:40:39;10.63;;;5.82;;
43014;SDS011;28637;50.554;7.032;2023-05-18T20:45:40;10.77;;;5.60;;
43014;SDS011;28637;50.554;7.032;2023-05-18T20:50:41;8.05;;;3.30;;
43014;SDS011;28637;50.554;7.032;2023-05-18T20:55:41;6.33;;;3.10;;
43014;SDS011;28637;50.554;7.032;2023-05-18T21:00:45;4.43;;;2.70;;
43014;SDS011;28637;50.554;7.032;2023-05-18T21:05:47;5.25;;;2.60;;
43014;SDS011;28637;50.554;7.032;2023-05-18T21:10:50;4.32;;;2.90;;
43014;SDS011;28637;50.554;7.032;2023-05-18T21:15:51;4.90;;;3.00;;
43014;SDS011;28637;50.554;7.032;2023-05-18T21:20:51;7.13;;;3.30;;
43014;SDS011;28637;50.554;7.032;2023-05-18T21:25:56;3.80;;;2.50;;
43014;SDS011;28637;50.554;7.032;2023-05-18T21:30:57;7.60;;;2.50;;
43014;SDS011;28637;50.554;7.032;2023-05-18T21:35:57;3.15;;;2.40;;
43014;SDS011;28637;50.554;7.032;2023-05-18T21:40:59;3.47;;;2.35;;
43014;SDS011;28637;50.554;7.032;2023-05-18T21:45:59;5.33;;;2.43;;
43014;SDS011;28637;50.554;7.032;2023-05-18T21:51:00;5.17;;;2.80;;
43014;SDS011;28637;50.554;7.032;2023-05-18T21:56:03;5.78;;;2.50;;
43014;SDS011;28637;50.554;7.032;2023-05-18T22:01:03;3.95;;;2.55;;
43014;SDS011;28637;50.554;7.032;2023-05-18T22:06:04;3.90;;;2.72;;
43014;SDS011;28637;50.554;7.032;2023-05-18T22:11:05;3.67;;;2.40;;
43014;SDS011;28637;50.554;7.032;2023-05-18T22:16:06;3.35;;;2.38;;
43014;SDS011;28637;50.554;7.032;2023-05-18T22:21:06;3.38;;;2.30;;
43014;SDS011;28637;50.554;7.032;2023-05-18T22:26:07;4.63;;;2.35;;
43014;SDS011;28637;50.554;7.032;2023-05-18T22:31:08;5.90;;;3.63;;
43014;SDS011;28637;50.554;7.032;2023-05-18T22:36:08;3.45;;;2.35;;
43014;SDS011;28637;50.554;7.032;2023-05-18T22:41:09;6.25;;;2.63;;
43014;SDS011;28637;50.554;7.032;2023-05-18T22:46:10;3.72;;;2.60;;
43014;SDS011;28637;50.554;7.032;2023-05-18T22:51:10;4.45;;;2.20;;
43014;SDS011;28637;50.554;7.032;2023-05-18T22:56:14;4.00;;;2.30;;
43014;SDS011;28637;50.554;7.032;2023-05-18T23:01:16;4.03;;;2.30;;
43014;SDS011;28637;50.554;7.032;2023-05-18T23:06:17;6.43;;;2.10;;
43014;SDS011;28637;50.554;7.032;2023-05-18T23:11:21;7.55;;;2.30;;
43014;SDS011;28637;50.554;7.032;2023-05-18T23:16:21;7.13;;;2.40;;
43014;SDS011;28637;50.554;7.032;2023-05-18T23:21:22;3.27;;;2.20;;
43014;SDS011;28637;50.554;7.032;2023-05-18T23:26:23;4.07;;;2.13;;
43014;SDS011;28637;50.554;7.032;2023-05-18T23:31:24;5.68;;;2.50;;
43014;SDS011;28637;50.554;7.032;2023-05-18T23:36:24;6.97;;;2.30;;
43014;SDS011;28637;50.554;7.032;2023-05-18T23:41:29;4.82;;;2.50;;
43014;SDS011;28637;50.554;7.032;2023-05-18T23:46:30;2.67;;;2.17;;
43014;SDS011;28637;50.554;7.032;2023-05-18T23:51:31;6.50;;;2.35;;
43014;SDS011;28637;50.554;7.032;2023-05-18T23:56:34;6.10;;;2.20;;
